createdAt,value
2023-02-11T00:01:18.821Z,102862.50
2023-02-11T00:03:46.521Z,102873.28
2023-02-11T00:06:14.146Z,102873.19
2023-02-11T00:08:41.804Z,102874.13
2023-02-11T00:11:13.763Z,102881.19
2023-02-11T00:13:42.211Z,102878.59
2023-02-11T00:16:19.107Z,102879.41
2023-02-11T00:18:47.204Z,102890.09
2023-02-11T00:21:17.543Z,102880.31
2023-02-11T00:23:46.185Z,102875.94
2023-02-11T00:26:25.303Z,102879.47
2023-02-11T00:28:53.530Z,102867.84
2023-02-11T00:31:22.942Z,102874.13
2023-02-11T00:33:50.894Z,102874.00
2023-02-11T00:36:21.579Z,102866.06
2023-02-11T00:38:51.192Z,102867.84
2023-02-11T00:41:20.060Z,102868.75
2023-02-11T00:43:48.650Z,102867.06
2023-02-11T00:46:17.193Z,102867.94
2023-02-11T00:48:44.951Z,102867.06
2023-02-11T00:51:13.232Z,102862.66
2023-02-11T00:53:42.532Z,102866.97
2023-02-11T00:56:10.652Z,102869.66
2023-02-11T00:58:38.415Z,102874.94
2023-02-11T01:01:06.484Z,102875.84
2023-02-11T01:03:36.369Z,102876.81
2023-02-11T01:06:04.957Z,102876.75
2023-02-11T01:08:32.594Z,102882.94
2023-02-11T01:11:03.792Z,102878.38
2023-02-11T01:13:33.723Z,102872.19
2023-02-11T01:16:01.930Z,102880.13
2023-02-11T01:18:29.565Z,102877.50
2023-02-11T01:20:57.184Z,102880.19
2023-02-11T01:23:24.852Z,102876.75
2023-02-11T01:25:53.206Z,102879.22
2023-02-11T01:28:23.935Z,102883.72
2023-02-11T01:34:02.794Z,102887.41
2023-02-11T01:36:30.440Z,102880.19
2023-02-11T01:38:57.939Z,102882.84
2023-02-11T01:41:25.672Z,102894.47
2023-02-11T01:43:53.199Z,102884.66
2023-02-11T01:46:33.399Z,102889.13
2023-02-11T01:49:08.666Z,102882.84
2023-02-11T01:51:44.146Z,102876.50
2023-02-11T01:54:35.771Z,102881.00
2023-02-11T01:57:25.254Z,102885.38
2023-02-11T02:00:24.663Z,102886.31
2023-02-11T02:03:03.316Z,102876.50
2023-02-11T02:05:51.378Z,102873.91
2023-02-11T02:08:35.501Z,102872.13
2023-02-11T02:11:03.842Z,102872.97
2023-02-11T02:13:34.097Z,102868.50
2023-02-11T02:16:09.667Z,102867.66
2023-02-11T02:19:01.095Z,102871.22
2023-02-11T02:22:01.020Z,102872.13
2023-02-11T02:24:46.629Z,102873.84
2023-02-11T02:27:40.364Z,102864.88
2023-02-11T02:30:13.740Z,102871.09
2023-02-11T02:33:22.359Z,102867.66
2023-02-11T02:36:02.969Z,102862.38
2023-02-11T02:38:36.661Z,102869.50
2023-02-11T02:41:17.425Z,102865.03
2023-02-11T02:43:48.569Z,102875.72
2023-02-11T02:46:23.379Z,102872.19
2023-02-11T02:48:55.770Z,102868.75
2023-02-11T02:51:32.202Z,102867.78
2023-02-11T02:54:18.574Z,102862.59
2023-02-11T02:57:10.332Z,102860.00
2023-02-11T02:59:58.328Z,102861.94
2023-02-11T03:02:48.021Z,102862.97
2023-02-11T03:05:26.057Z,102861.31
2023-02-11T03:08:09.988Z,102857.84
2023-02-11T03:10:43.372Z,102843.88
2023-02-11T03:13:13.032Z,102853.75
2023-02-11T03:15:47.919Z,102846.84
2023-02-11T03:18:18.934Z,102847.03
2023-02-11T03:20:50.777Z,102853.44
2023-02-11T03:23:28.930Z,102856.25
2023-02-11T03:26:02.972Z,102850.13
2023-02-11T03:28:49.341Z,102852.78
2023-02-11T03:31:25.722Z,102852.72
2023-02-11T03:34:27.690Z,102851.94
2023-02-11T03:37:19.176Z,102846.53
2023-02-11T03:40:19.394Z,102855.47
2023-02-11T03:42:53.735Z,102859.00
2023-02-11T03:45:24.490Z,102854.59
2023-02-11T03:48:04.531Z,102855.47
2023-02-11T03:50:33.884Z,102851.94
2023-02-11T03:53:02.933Z,102853.69
2023-02-11T03:55:33.760Z,102857.13
2023-02-11T03:58:01.578Z,102862.44
2023-02-11T04:00:34.532Z,102861.59
2023-02-11T04:03:02.881Z,102869.44
2023-02-11T04:05:30.637Z,102866.88
2023-02-11T04:07:58.638Z,102868.72
2023-02-11T04:10:26.587Z,102873.22
2023-02-11T04:12:54.147Z,102864.41
2023-02-11T04:15:24.178Z,102855.63
2023-02-11T04:17:52.456Z,102854.00
2023-02-11T04:20:20.085Z,102858.63
2023-02-11T04:22:47.704Z,102870.38
2023-02-11T04:25:15.324Z,102863.31
2023-02-11T04:27:42.982Z,102866.84
2023-02-11T04:30:11.356Z,102866.75
2023-02-11T04:32:38.992Z,102862.25
2023-02-11T04:35:06.946Z,102864.91
2023-02-11T04:37:35.317Z,102864.81
2023-02-11T04:40:02.957Z,102878.16
2023-02-11T04:42:30.641Z,102877.16
2023-02-11T04:44:58.215Z,102877.88
2023-02-11T04:47:25.873Z,102880.41
2023-02-11T04:49:53.435Z,102882.94
2023-02-11T04:52:21.038Z,102887.19
2023-02-11T04:54:48.564Z,102898.69
2023-02-11T04:57:16.154Z,102899.59
2023-02-11T04:59:43.713Z,102888.13
2023-02-11T05:02:11.386Z,102887.44
2023-02-11T05:04:38.970Z,102887.69
2023-02-11T05:07:06.787Z,102884.19
2023-02-11T05:09:34.343Z,102881.69
2023-02-11T05:12:01.946Z,102881.69
2023-02-11T05:14:29.516Z,102885.22
2023-02-11T05:16:57.135Z,102884.19
2023-02-11T05:22:28.750Z,102900.00
2023-02-11T05:24:56.329Z,102901.72
2023-02-11T05:27:23.874Z,102909.72
2023-02-11T05:29:51.437Z,102912.47
2023-02-11T05:32:19.046Z,102909.97
2023-02-11T05:34:46.657Z,102917.09
2023-02-11T05:37:14.293Z,102918.88
2023-02-11T05:39:41.974Z,102917.16
2023-02-11T05:42:09.558Z,102911.91
2023-02-11T05:44:37.185Z,102912.91
2023-02-11T05:47:05.043Z,102921.97
2023-02-11T05:49:32.670Z,102914.84
2023-02-11T05:52:00.294Z,102913.03
2023-02-11T05:54:27.824Z,102920.09
2023-02-11T05:56:55.386Z,102918.28
2023-02-11T05:59:22.991Z,102913.84
2023-02-11T06:01:50.528Z,102917.38
2023-02-11T06:04:18.165Z,102907.56
2023-02-11T06:06:45.831Z,102911.00
2023-02-11T06:09:13.424Z,102903.94
2023-02-11T06:11:40.944Z,102909.41
2023-02-11T06:14:08.918Z,102917.56
2023-02-11T06:16:36.939Z,102906.16
2023-02-11T06:19:04.632Z,102917.81
2023-02-11T06:21:43.301Z,102917.09
2023-02-11T06:24:12.771Z,102919.91
2023-02-11T06:26:40.647Z,102919.91
2023-02-11T06:29:08.417Z,102915.38
2023-02-11T06:31:38.198Z,102928.56
2023-02-11T06:34:06.354Z,102925.81
2023-02-11T06:36:34.108Z,102924.06
2023-02-11T06:39:01.897Z,102933.78
2023-02-11T06:41:29.657Z,102916.84
2023-02-11T06:43:57.256Z,102915.97
2023-02-11T06:46:24.928Z,102907.13
2023-02-11T06:48:52.713Z,102915.16
2023-02-11T06:51:20.256Z,102928.56
2023-02-11T06:53:48.254Z,102927.72
2023-02-11T06:56:19.248Z,102933.91
2023-02-11T06:58:47.790Z,102934.75
2023-02-11T07:01:16.538Z,102932.91
2023-02-11T07:03:46.322Z,102939.97
2023-02-11T07:06:16.876Z,102939.88
2023-02-11T07:08:46.033Z,102938.16
2023-02-11T07:11:19.347Z,102943.50
2023-02-11T07:13:48.256Z,102943.44
2023-02-11T07:16:18.735Z,102939.84
2023-02-11T07:18:48.623Z,102946.03
2023-02-11T07:21:19.592Z,102957.50
2023-02-11T07:23:48.752Z,102955.59
2023-02-11T07:26:19.583Z,102952.88
2023-02-11T07:28:47.151Z,102953.66
2023-02-11T07:31:15.967Z,102959.91
2023-02-11T07:33:45.953Z,102958.09
2023-02-11T07:36:15.717Z,102960.66
2023-02-11T07:38:43.962Z,102967.81
2023-02-11T07:41:15.120Z,102968.66
2023-02-11T07:43:43.601Z,102972.28
2023-02-11T07:46:13.935Z,102973.28
2023-02-11T07:48:41.634Z,102974.13
2023-02-11T07:51:10.807Z,102965.38
2023-02-11T07:53:38.626Z,102975.16
2023-02-11T07:56:07.522Z,102970.09
2023-02-11T07:58:35.351Z,102976.41
2023-02-11T08:01:08.229Z,102980.03
2023-02-11T08:03:37.041Z,102972.94
2023-02-11T08:06:13.758Z,102977.38
2023-02-11T08:08:42.136Z,102979.13
2023-02-11T08:11:14.634Z,102985.38
2023-02-11T08:13:42.874Z,102984.41
2023-02-11T08:16:17.369Z,102981.75
2023-02-11T08:18:44.969Z,102985.28
2023-02-11T08:21:12.562Z,102990.63
2023-02-11T08:23:43.075Z,102995.94
2023-02-11T08:26:14.277Z,102999.47
2023-02-11T08:28:43.826Z,102999.34
2023-02-11T08:31:17.159Z,103001.81
2023-02-11T08:33:45.506Z,103001.66
2023-02-11T08:36:16.808Z,102991.81
2023-02-11T08:38:45.201Z,102999.66
2023-02-11T08:41:15.019Z,103000.53
2023-02-11T08:43:44.321Z,103003.06
2023-02-11T08:46:14.952Z,103009.06
2023-02-11T08:48:43.015Z,103009.06
2023-02-11T08:51:14.834Z,103017.00
2023-02-11T08:53:42.859Z,103013.47
2023-02-11T08:56:13.392Z,103014.28
2023-02-11T08:58:42.724Z,103027.41
2023-02-11T09:01:12.394Z,103021.78
2023-02-11T09:03:40.450Z,103030.59
2023-02-11T09:06:10.947Z,103030.31
2023-02-11T09:08:40.804Z,103037.03
2023-02-11T09:11:10.302Z,103035.63
2023-02-11T09:13:38.052Z,103037.88
2023-02-11T09:16:05.975Z,103036.56
2023-02-11T09:18:34.120Z,103039.56
2023-02-11T09:21:09.261Z,103042.66
2023-02-11T09:23:37.035Z,103046.00
2023-02-11T09:26:09.840Z,103052.94
2023-02-11T09:28:37.944Z,103045.09
2023-02-11T09:31:07.840Z,103057.66
2023-02-11T09:33:36.655Z,103052.41
2023-02-11T09:36:05.970Z,103051.66
2023-02-11T09:38:34.038Z,103052.22
2023-02-11T09:41:04.123Z,103061.75
2023-02-11T09:43:44.265Z,103060.47
2023-02-11T09:46:17.461Z,103077.09
2023-02-11T09:48:48.305Z,103075.97
2023-02-11T09:51:57.580Z,103086.63
2023-02-11T09:54:39.232Z,103084.91
2023-02-11T09:57:22.855Z,103095.75
2023-02-11T09:59:54.356Z,103104.13
2023-02-11T10:02:45.072Z,103112.47
2023-02-11T10:05:34.431Z,103104.97
2023-02-11T10:08:30.031Z,103115.19
2023-02-11T10:11:02.947Z,103118.22
2023-02-11T10:13:33.821Z,103118.31
2023-02-11T10:16:24.329Z,103123.56
2023-02-11T10:19:30.245Z,103130.69
2023-02-11T10:22:10.230Z,103131.75
2023-02-11T10:24:39.362Z,103138.69
2023-02-11T10:27:19.703Z,103143.91
2023-02-11T10:29:56.951Z,103141.28
2023-02-11T10:32:58.916Z,103146.56
2023-02-11T10:35:28.043Z,103148.56
2023-02-11T10:37:56.282Z,103155.09
2023-02-11T10:40:29.768Z,103145.72
2023-02-11T10:43:04.733Z,103139.16
2023-02-11T10:45:46.099Z,103143.03
2023-02-11T10:48:37.604Z,103146.75
2023-02-11T10:51:12.833Z,103150.63
2023-02-11T10:53:42.823Z,103149.63
2023-02-11T10:56:31.188Z,103158.75
2023-02-11T10:59:01.972Z,103158.63
2023-02-11T11:01:53.563Z,103159.91
2023-02-11T11:04:34.136Z,103162.16
2023-02-11T11:07:10.963Z,103162.06
2023-02-11T11:09:52.436Z,103161.13
2023-02-11T11:12:46.101Z,103168.75
2023-02-11T11:15:21.865Z,103167.25
2023-02-11T11:18:20.958Z,103173.59
2023-02-11T11:21:01.336Z,103173.72
2023-02-11T11:23:32.392Z,103168.31
2023-02-11T11:26:03.622Z,103171.56
2023-02-11T11:28:38.963Z,103160.22
2023-02-11T11:31:15.214Z,103174.94
2023-02-11T11:33:47.598Z,103178.47
2023-02-11T11:36:21.127Z,103178.53
2023-02-11T11:42:23.976Z,103184.41
2023-02-11T11:45:04.744Z,103173.75
2023-02-11T11:47:40.070Z,103174.44
2023-02-11T11:50:45.215Z,103171.97
2023-02-11T11:53:23.302Z,103173.97
2023-02-11T11:56:01.608Z,103168.66
2023-02-11T11:58:31.048Z,103163.09
2023-02-11T12:01:01.653Z,103156.88
2023-02-11T12:03:42.343Z,103156.25
2023-02-11T12:06:18.911Z,103151.69
2023-02-11T12:08:55.629Z,103151.94
2023-02-11T12:11:23.154Z,103159.22
2023-02-11T12:14:22.213Z,103170.19
2023-02-11T12:17:11.769Z,103159.00
2023-02-11T12:19:45.270Z,103165.84
2023-02-11T12:22:42.020Z,103160.06
2023-02-11T12:26:01.060Z,103156.28
2023-02-11T12:28:43.633Z,103154.03
2023-02-11T12:31:17.231Z,103151.91
2023-02-11T12:34:06.596Z,103153.63
2023-02-11T12:36:46.940Z,103154.59
2023-02-11T12:39:39.429Z,103158.91
2023-02-11T12:42:47.002Z,103156.72
2023-02-11T12:45:55.561Z,103146.38
2023-02-11T12:49:01.092Z,103146.72
2023-02-11T12:51:46.565Z,103147.28
2023-02-11T12:54:44.897Z,103144.09
2023-02-11T12:57:21.474Z,103144.56
2023-02-11T12:59:56.592Z,103135.09
2023-02-11T13:02:45.749Z,103130.72
2023-02-11T13:05:31.890Z,103136.84
2023-02-11T13:08:22.591Z,103139.19
2023-02-11T13:10:58.027Z,103140.13
2023-02-11T13:13:31.700Z,103137.59
2023-02-11T13:16:09.384Z,103142.06
2023-02-11T13:19:00.609Z,103147.53
2023-02-11T13:21:41.612Z,103144.50
2023-02-11T13:24:21.220Z,103151.66
2023-02-11T13:27:01.773Z,103144.63
2023-02-11T13:29:36.619Z,103139.69
2023-02-11T13:32:11.919Z,103135.69
2023-02-11T13:34:42.442Z,103135.31
2023-02-11T13:37:37.442Z,103135.88
2023-02-11T13:40:06.949Z,103145.72
2023-02-11T13:42:49.824Z,103143.22
2023-02-11T13:45:44.826Z,103139.75
2023-02-11T13:48:22.447Z,103132.81
2023-02-11T13:50:53.670Z,103130.16
2023-02-11T13:53:22.339Z,103124.34
2023-02-11T13:56:05.192Z,103125.69
2023-02-11T13:58:32.738Z,103126.69
2023-02-11T14:01:00.302Z,103119.78
2023-02-11T14:03:50.528Z,103115.53
2023-02-11T14:06:46.276Z,103115.72
2023-02-11T14:09:13.816Z,103113.16
2023-02-11T14:11:41.773Z,103104.84
2023-02-11T14:14:24.021Z,103106.56
2023-02-11T14:17:04.717Z,103109.75
2023-02-11T14:19:35.377Z,103110.94
2023-02-11T14:22:05.959Z,103107.56
2023-02-11T14:24:33.523Z,103108.31
2023-02-11T14:27:03.946Z,103110.38
2023-02-11T14:29:37.591Z,103106.03
2023-02-11T14:32:27.118Z,103117.75
2023-02-11T14:35:30.815Z,103111.09
2023-02-11T14:38:21.956Z,103115.94
2023-02-11T14:40:49.830Z,103115.63
2023-02-11T14:43:23.062Z,103119.34
2023-02-11T14:45:56.004Z,103119.59
2023-02-11T14:48:32.349Z,103125.94
2023-02-11T14:51:13.688Z,103116.41
2023-02-11T14:53:46.901Z,103118.38
2023-02-11T14:56:24.749Z,103110.50
2023-02-11T14:58:54.067Z,103102.72
2023-02-11T15:01:36.093Z,103115.22
2023-02-11T15:04:06.633Z,103102.22
2023-02-11T15:06:38.336Z,103106.06
2023-02-11T15:09:26.965Z,103108.03
2023-02-11T15:11:57.417Z,103098.19
2023-02-11T15:14:28.632Z,103103.53
2023-02-11T15:17:00.427Z,103106.22
2023-02-11T15:19:36.062Z,103107.94
2023-02-11T15:22:26.076Z,103102.34
2023-02-11T15:25:01.500Z,103113.94
2023-02-11T15:27:38.715Z,103121.00
2023-02-11T15:30:23.306Z,103111.03
2023-02-11T15:32:58.832Z,103120.63
2023-02-11T15:35:38.195Z,103116.94
2023-02-11T15:38:06.143Z,103127.56
2023-02-11T15:40:36.233Z,103130.81
2023-02-11T15:43:07.106Z,103131.75
2023-02-11T15:45:53.654Z,103131.03
2023-02-11T15:48:46.594Z,103132.25
2023-02-11T15:51:35.119Z,103134.84
2023-02-11T15:54:06.592Z,103132.25
2023-02-11T15:56:43.438Z,103135.22
2023-02-11T15:59:27.441Z,103135.47
2023-02-11T16:01:55.566Z,103134.75
2023-02-11T16:04:28.053Z,103126.16
2023-02-11T16:06:56.195Z,103140.78
2023-02-11T16:09:43.074Z,103134.88
2023-02-11T16:12:37.071Z,103147.41
2023-02-11T16:15:31.042Z,103146.69
2023-02-11T16:17:59.007Z,103153.97
2023-02-11T16:20:26.799Z,103152.25
2023-02-11T16:22:54.802Z,103150.44
2023-02-11T16:25:23.640Z,103151.38
2023-02-11T16:27:54.749Z,103146.31
2023-02-11T16:30:40.627Z,103155.34
2023-02-11T16:33:11.072Z,103151.94
2023-02-11T16:35:38.857Z,103166.19
2023-02-11T16:38:06.475Z,103158.34
2023-02-11T16:40:34.139Z,103162.88
2023-02-11T16:43:01.743Z,103160.25
2023-02-11T16:45:29.681Z,103160.41
2023-02-11T16:48:00.766Z,103161.28
2023-02-11T16:50:29.448Z,103164.81
2023-02-11T16:53:02.188Z,103169.34
2023-02-11T16:55:29.927Z,103171.16
2023-02-11T16:57:57.823Z,103181.03
2023-02-11T17:00:25.438Z,103177.59
2023-02-11T17:02:53.234Z,103184.81
2023-02-11T17:05:25.220Z,103180.41
2023-02-11T17:07:53.126Z,103185.13
2023-02-11T17:10:23.108Z,103188.78
2023-02-11T17:12:51.626Z,103187.16
2023-02-11T17:15:19.356Z,103185.38
2023-02-11T17:17:47.077Z,103186.28
2023-02-11T17:20:15.510Z,103192.47
2023-02-11T17:22:43.228Z,103188.13
2023-02-11T17:25:11.366Z,103181.84
2023-02-11T17:27:39.154Z,103183.75
2023-02-11T17:30:07.822Z,103188.19
2023-02-11T17:32:36.772Z,103190.00
2023-02-11T17:35:06.998Z,103190.06
2023-02-11T17:37:34.616Z,103198.13
2023-02-11T17:40:02.393Z,103197.34
2023-02-11T17:42:31.351Z,103202.69
2023-02-11T17:45:00.110Z,103206.34
2023-02-11T17:47:27.728Z,103203.72
2023-02-11T17:49:55.552Z,103197.47
2023-02-11T17:52:24.419Z,103197.47
2023-02-11T17:54:52.048Z,103208.16
2023-02-11T17:57:19.669Z,103209.06
2023-02-11T17:59:47.426Z,103210.97
2023-02-11T18:02:15.141Z,103226.09
2023-02-11T18:04:42.915Z,103231.34
2023-02-11T18:07:10.608Z,103223.41
2023-02-11T18:09:39.799Z,103227.13
2023-02-11T18:12:08.530Z,103229.88
2023-02-11T18:14:40.484Z,103228.06
2023-02-11T18:17:08.498Z,103241.34
2023-02-11T18:19:37.677Z,103237.78
2023-02-11T18:22:05.421Z,103244.88
2023-02-11T18:24:33.168Z,103244.88
2023-02-11T18:27:00.860Z,103244.88
2023-02-11T18:29:28.493Z,103250.16
2023-02-11T18:31:57.158Z,103250.09
2023-02-11T18:34:25.702Z,103265.16
2023-02-11T18:36:53.363Z,103259.81
2023-02-11T18:39:24.279Z,103258.03
2023-02-11T18:41:54.753Z,103258.88
2023-02-11T18:44:24.849Z,103271.31
2023-02-11T18:46:53.156Z,103252.56
2023-02-11T18:49:20.843Z,103247.22
2023-02-11T18:51:48.650Z,103254.28
2023-02-11T18:54:16.342Z,103255.19
2023-02-11T18:56:43.994Z,103254.28
2023-02-11T18:59:11.592Z,103262.28
2023-02-11T19:01:43.319Z,103260.44
2023-02-11T19:04:11.552Z,103257.78
2023-02-11T19:06:39.288Z,103271.97
2023-02-11T19:09:10.355Z,103259.56
2023-02-11T19:11:53.976Z,103257.78
2023-02-11T19:14:28.478Z,103254.16
2023-02-11T19:16:58.619Z,103261.38
2023-02-11T19:19:29.063Z,103258.63
2023-02-11T19:21:59.468Z,103264.84
2023-02-11T19:24:29.109Z,103259.44
2023-02-11T19:26:59.688Z,103263.06
2023-02-11T19:29:27.807Z,103258.63
2023-02-11T19:31:55.704Z,103259.44
2023-02-11T19:34:23.601Z,103258.63
2023-02-11T19:36:51.192Z,103265.72
2023-02-11T19:39:19.007Z,103261.38
2023-02-11T19:41:46.754Z,103261.38
2023-02-11T19:44:14.517Z,103259.50
2023-02-11T19:46:42.367Z,103255.97
2023-02-11T19:49:14.437Z,103253.25
2023-02-11T19:51:41.993Z,103249.72
2023-02-11T19:54:09.511Z,103248.81
2023-02-11T19:56:38.532Z,103251.50
2023-02-11T19:59:09.037Z,103253.31
2023-02-11T20:01:37.281Z,103248.81
2023-02-11T20:04:05.629Z,103254.16
2023-02-11T20:06:34.333Z,103261.19
2023-02-11T20:09:06.488Z,103260.41
2023-02-11T20:11:35.281Z,103264.84
2023-02-11T20:14:03.434Z,103262.25
2023-02-11T20:16:46.872Z,103268.44
2023-02-11T20:19:18.648Z,103265.84
2023-02-11T20:21:48.549Z,103265.91
2023-02-11T20:24:18.351Z,103265.91
2023-02-11T20:26:48.626Z,103259.69
2023-02-11T20:29:18.124Z,103252.63
2023-02-11T20:31:46.216Z,103257.91
2023-02-11T20:34:13.932Z,103260.69
2023-02-11T20:36:41.672Z,103265.09
2023-02-11T20:39:11.586Z,103259.69
2023-02-11T20:41:40.115Z,103262.28
2023-02-11T20:44:10.696Z,103261.31
2023-02-11T20:46:41.914Z,103270.03
2023-02-11T20:49:15.550Z,103264.59
2023-02-11T20:51:43.491Z,103261.91
2023-02-11T20:54:19.580Z,103259.25
2023-02-11T20:56:48.612Z,103266.38
2023-02-11T20:59:17.674Z,103262.78
2023-02-11T21:01:48.480Z,103256.53
2023-02-11T21:04:19.407Z,103268.94
2023-02-11T21:06:50.057Z,103269.00
2023-02-11T21:09:20.199Z,103276.00
2023-02-11T21:11:50.108Z,103274.28
2023-02-11T21:14:19.040Z,103276.94
2023-02-11T21:16:48.350Z,103280.59
2023-02-11T21:19:17.658Z,103279.81
2023-02-11T21:21:45.526Z,103277.19
2023-02-11T21:24:13.156Z,103276.31
2023-02-11T21:26:40.791Z,103278.06
2023-02-11T21:29:09.025Z,103284.34
2023-02-11T21:31:37.098Z,103278.91
2023-02-11T21:34:05.210Z,103278.91
2023-02-11T21:36:33.311Z,103287.00
2023-02-11T21:39:01.943Z,103295.09
2023-02-11T21:41:29.580Z,103293.28
2023-02-11T21:43:57.216Z,103292.47
2023-02-11T21:46:24.941Z,103297.09
2023-02-11T21:48:52.849Z,103293.78
2023-02-11T21:51:23.539Z,103294.84
2023-02-11T21:53:55.696Z,103302.88
2023-02-11T21:56:23.692Z,103294.09
2023-02-11T21:58:53.590Z,103292.41
2023-02-11T22:01:24.738Z,103295.06
2023-02-11T22:03:52.417Z,103283.53
2023-02-11T22:06:31.001Z,103290.66
2023-02-11T22:09:01.720Z,103287.97
2023-02-11T22:11:29.307Z,103295.13
2023-02-11T22:13:57.996Z,103290.72
2023-02-11T22:16:27.453Z,103296.06
2023-02-11T22:18:58.722Z,103289.00
2023-02-11T22:21:26.819Z,103297.00
2023-02-11T22:23:55.495Z,103301.59
2023-02-11T22:26:25.169Z,103303.34
2023-02-11T22:28:53.821Z,103307.78
2023-02-11T22:31:24.736Z,103306.09
2023-02-11T22:33:52.684Z,103306.16
2023-02-11T22:36:23.284Z,103307.94
2023-02-11T22:38:51.501Z,103308.03
2023-02-11T22:41:19.808Z,103304.41
2023-02-11T22:43:47.510Z,103314.28
2023-02-11T22:46:17.902Z,103308.06
2023-02-11T22:48:46.246Z,103304.50
2023-02-11T22:51:16.635Z,103304.50
2023-02-11T22:53:44.650Z,103309.81
2023-02-11T22:56:15.574Z,103316.06
2023-02-11T22:58:43.743Z,103311.75
2023-02-11T23:01:12.840Z,103319.88
2023-02-11T23:03:40.634Z,103313.72
2023-02-11T23:06:09.514Z,103304.88
2023-02-11T23:08:39.684Z,103311.16
2023-02-11T23:11:10.140Z,103305.81
2023-02-11T23:13:39.521Z,103308.44
2023-02-11T23:16:09.927Z,103307.50
2023-02-11T23:18:39.199Z,103300.44
2023-02-11T23:21:29.310Z,103309.47
2023-02-11T23:24:02.225Z,103308.63
2023-02-11T23:26:30.678Z,103313.94
2023-02-11T23:28:59.051Z,103306.75
2023-02-11T23:31:37.602Z,103315.63
2023-02-11T23:34:07.188Z,103320.13
2023-02-11T23:36:34.870Z,103319.34
2023-02-11T23:39:02.915Z,103307.88
2023-02-11T23:41:30.605Z,103314.19
2023-02-11T23:43:58.228Z,103316.91
2023-02-11T23:46:27.334Z,103321.31
2023-02-11T23:48:55.209Z,103320.38
2023-02-11T23:51:23.557Z,103313.31
2023-02-11T23:53:54.237Z,103315.09
2023-02-11T23:56:26.212Z,103311.69
2023-02-11T23:58:56.154Z,103297.44
